Time;durP1;ratioP1;P1;durP2;ratioP2;P2;SDS_P1;SDS_P2;PMS_P1;PMS_P2;Temp;Humidity;BMP_temperature;BMP_pressure;BME280_temperature;BME280_humidity;BME280_pressure;Samples;Min_cycle;Max_cycle;Signal;HPM_P1;HPM_P2
2022/10/31 00:00:33;;;;;;;81.37;30.35;;;;;;;8.76;97.61;94923.16;1681754;84;21002;-58
2022/10/31 00:03:00;;;;;;;53.75;27.73;;;;;;;8.81;98.06;94931.61;1632980;86;21161;-59
2022/10/31 00:05:26;;;;;;;67.92;27.00;;;;;;;8.88;97.53;94931.45;1683359;84;20986;-59
2022/10/31 00:07:55;;;;;;;46.75;24.47;;;;;;;8.82;96.70;94934.52;1672443;83;20954;-59
2022/10/31 00:10:22;;;;;;;39.70;20.65;;;;;;;8.67;96.14;94933.95;1680942;84;21022;-59
2022/10/31 00:12:49;;;;;;;55.30;20.97;;;;;;;8.54;96.02;94945.42;1683869;84;21018;-58
2022/10/31 00:15:18;;;;;;;37.78;19.02;;;;;;;8.40;96.14;94947.92;1626897;84;21072;-58
2022/10/31 00:17:46;;;;;;;37.98;20.30;;;;;;;8.35;96.49;94942.95;1660409;85;21487;-59
2022/10/31 00:20:15;;;;;;;40.45;21.02;;;;;;;8.34;96.69;94946.11;1677706;85;21304;-59
2022/10/31 00:22:43;;;;;;;45.90;24.50;;;;;;;8.35;97.25;94942.17;1661180;86;20979;-59
2022/10/31 00:25:12;;;;;;;46.83;23.15;;;;;;;8.37;97.37;94936.45;1661735;84;21538;-58
2022/10/31 00:27:40;;;;;;;48.05;24.30;;;;;;;8.33;97.29;94938.50;1652119;85;21065;-58
2022/10/31 00:30:09;;;;;;;44.65;23.02;;;;;;;8.28;97.28;94939.61;1646551;84;21018;-59
2022/10/31 00:32:37;;;;;;;39.65;23.57;;;;;;;8.25;97.40;94939.09;1673498;85;21303;-59
2022/10/31 00:35:05;;;;;;;41.48;22.35;;;;;;;8.23;97.67;94943.62;1655103;85;20995;-59
2022/10/31 00:37:33;;;;;;;52.50;24.10;;;;;;;8.25;97.74;94941.84;1609225;87;21000;-59
2022/10/31 00:40:01;;;;;;;48.25;23.83;;;;;;;8.23;97.86;94947.73;1626846;88;21529;-59
2022/10/31 00:42:27;;;;;;;54.53;24.77;;;;;;;8.18;97.79;94940.61;1630586;88;21070;-58
2022/10/31 00:44:54;;;;;;;49.83;24.72;;;;;;;8.14;98.02;94942.05;1630696;88;21282;-58
2022/10/31 00:47:21;;;;;;;45.83;24.40;;;;;;;8.12;97.95;94941.71;1630616;88;21090;-59
2022/10/31 00:49:48;;;;;;;35.25;20.90;;;;;;;8.11;98.22;94931.92;1630707;88;21086;-59
2022/10/31 00:52:15;;;;;;;36.60;21.12;;;;;;;8.10;98.14;94931.00;1609209;87;21018;-58
2022/10/31 00:54:42;;;;;;;39.55;22.17;;;;;;;8.04;98.01;94932.71;1687369;84;21517;-58
2022/10/31 00:57:10;;;;;;;40.08;21.45;;;;;;;7.97;98.09;94939.70;1680312;84;21183;-58
2022/10/31 00:59:37;;;;;;;35.08;21.12;;;;;;;7.92;98.39;94940.97;1676433;85;20967;-58
2022/10/31 01:02:03;;;;;;;42.85;20.97;;;;;;;7.88;98.47;94934.80;1631041;86;20978;-59
2022/10/31 01:04:30;;;;;;;36.70;22.73;;;;;;;7.85;98.56;94932.16;1671312;84;21022;-60
2022/10/31 01:06:57;;;;;;;34.55;22.80;;;;;;;7.85;98.82;94941.14;1675519;84;20985;-58
2022/10/31 01:09:25;;;;;;;39.95;23.42;;;;;;;7.85;99.06;94935.66;1683472;84;20974;-59
2022/10/31 01:11:52;;;;;;;34.48;22.48;;;;;;;7.91;99.35;94936.69;1687447;84;21050;-59
2022/10/31 01:14:18;;;;;;;34.88;22.02;;;;;;;7.95;99.49;94929.19;1643434;86;21040;-59
2022/10/31 01:16:45;;;;;;;34.48;21.95;;;;;;;8.01;99.42;94930.22;1622352;86;20998;-59
2022/10/31 01:19:14;;;;;;;30.90;21.23;;;;;;;8.05;99.24;94938.36;1691642;84;20962;-59
2022/10/31 01:21:41;;;;;;;39.78;22.87;;;;;;;8.05;99.07;94940.48;1686092;84;21877;-58
2022/10/31 01:24:08;;;;;;;36.58;23.52;;;;;;;8.01;98.70;94937.06;1686933;84;21057;-59
2022/10/31 01:26:37;;;;;;;36.45;22.35;;;;;;;7.96;98.71;94930.73;1674263;84;21078;-58
2022/10/31 01:29:06;;;;;;;41.48;23.52;;;;;;;7.96;98.85;94936.20;1672540;85;20986;-59
2022/10/31 01:31:38;;;;;;;34.92;22.62;;;;;;;7.93;98.53;94927.47;1680145;84;21533;-58
2022/10/31 01:34:06;;;;;;;37.40;22.73;;;;;;;7.87;98.37;94931.89;1665177;84;21288;-59
2022/10/31 01:36:37;;;;;;;35.28;22.55;;;;;;;7.79;98.44;94927.78;1642186;86;21199;-58
2022/10/31 01:39:07;;;;;;;36.68;22.98;;;;;;;7.78;98.69;94928.98;1681039;83;20983;-58
2022/10/31 01:41:37;;;;;;;33.53;20.80;;;;;;;7.74;98.68;94935.11;1654464;86;21074;-59
2022/10/31 01:44:19;;;;;;;37.83;23.12;;;;;;;7.71;98.78;94929.11;1668028;83;21513;-58
2022/10/31 01:46:57;;;;;;;41.18;23.07;;;;;;;7.70;98.91;94927.57;1639338;86;21143;-59
2022/10/31 01:49:45;;;;;;;39.30;25.12;;;;;;;7.76;99.71;94927.27;1667537;85;21705;-59
2022/10/31 01:52:26;;;;;;;44.38;26.87;;;;;;;7.84;99.72;94927.27;1620041;87;21037;-59
2022/10/31 01:55:07;;;;;;;44.18;26.00;;;;;;;7.88;99.63;94928.57;1625455;87;21026;-59
2022/10/31 01:57:35;;;;;;;46.98;25.55;;;;;;;7.87;99.32;94925.05;1656737;85;21148;-58
2022/10/31 02:00:06;;;;;;;40.60;23.80;;;;;;;7.88;99.18;94932.06;1644141;85;21286;-59
2022/10/31 02:02:36;;;;;;;21.82;16.05;;;;;;;7.89;99.28;94931.48;1685778;84;21062;-59
2022/10/31 02:05:06;;;;;;;37.10;22.07;;;;;;;7.93;99.88;94915.73;1687037;84;21111;-59
2022/10/31 02:07:57;;;;;;;37.53;23.18;;;;;;;8.03;100.00;94918.23;1683803;84;21529;-57
2022/10/31 02:10:26;;;;;;;38.40;23.77;;;;;;;8.10;99.91;94933.13;1678723;85;20958;-59
2022/10/31 02:12:55;;;;;;;38.92;23.57;;;;;;;8.09;99.46;94921.99;1687995;83;21102;-59
2022/10/31 02:15:23;;;;;;;43.05;24.75;;;;;;;8.09;99.14;94922.61;1648844;84;21010;-59
2022/10/31 02:17:51;;;;;;;39.50;22.90;;;;;;;8.12;99.58;94917.05;1654085;85;21033;-59
2022/10/31 02:20:23;;;;;;;34.45;23.60;;;;;;;8.16;99.23;94925.17;1679376;84;21065;-58
2022/10/31 02:23:05;;;;;;;39.65;24.95;;;;;;;8.15;99.10;94931.85;1665030;84;21094;-58
2022/10/31 02:26:00;;;;;;;38.00;22.65;;;;;;;8.20;99.01;94929.41;1677533;84;21155;-60
2022/10/31 02:29:02;;;;;;;32.95;21.62;;;;;;;8.26;99.47;94931.05;1676056;84;21127;-60
2022/10/31 02:31:44;;;;;;;40.98;23.92;;;;;;;8.38;99.64;94936.61;1615995;85;21030;-59
2022/10/31 02:34:44;;;;;;;30.55;21.10;;;;;;;8.42;99.37;94934.55;1678077;85;21019;-59
2022/10/31 02:37:18;;;;;;;28.12;20.35;;;;;;;8.48;98.98;94945.78;1638884;85;21069;-58
2022/10/31 02:40:07;;;;;;;27.42;19.52;;;;;;;8.55;99.27;94938.74;1675861;85;21136;-58
2022/10/31 02:42:49;;;;;;;32.98;22.90;;;;;;;8.62;98.81;94933.86;1653078;84;20986;-59
2022/10/31 02:45:43;;;;;;;33.08;21.35;;;;;;;8.63;98.56;94936.02;1660431;85;20982;-59
2022/10/31 02:48:12;;;;;;;30.32;18.85;;;;;;;8.67;98.32;94940.22;1657660;85;21120;-59
2022/10/31 02:50:43;;;;;;;35.83;21.68;;;;;;;8.65;97.80;94943.20;1671890;86;21026;-59
2022/10/31 02:53:10;;;;;;;31.05;20.23;;;;;;;8.61;97.83;94941.91;1659740;85;22054;-59
2022/10/31 02:55:46;;;;;;;28.23;18.17;;;;;;;8.67;98.20;94937.48;1618888;86;21044;-59
2022/10/31 02:58:15;;;;;;;26.93;18.50;;;;;;;8.73;98.44;94943.19;1663727;85;21018;-60
2022/10/31 03:01:06;;;;;;;21.02;16.40;;;;;;;8.83;98.52;94945.66;1661405;85;21001;-59
2022/10/31 03:03:47;;;;;;;25.50;17.57;;;;;;;8.90;98.31;94945.50;1655881;85;21017;-58
2022/10/31 03:06:35;;;;;;;23.98;17.00;;;;;;;8.99;98.17;94953.87;1665735;85;21277;-59
2022/10/31 03:09:12;;;;;;;26.05;17.70;;;;;;;9.03;97.73;94944.97;1659601;85;21047;-58
2022/10/31 03:11:46;;;;;;;24.45;17.20;;;;;;;9.00;97.41;94948.55;1675473;84;21534;-59
2022/10/31 03:14:24;;;;;;;27.20;18.65;;;;;;;8.96;97.40;94951.41;1654090;84;21526;-59
2022/10/31 03:16:53;;;;;;;29.45;18.42;;;;;;;9.00;98.07;94942.48;1688075;84;21459;-60
2022/10/31 03:19:27;;;;;;;21.77;16.93;;;;;;;9.02;97.36;94948.89;1686366;84;21190;-58
2022/10/31 03:22:01;;;;;;;26.90;17.80;;;;;;;9.00;97.38;94949.92;1685528;83;21435;-58
2022/10/31 03:24:36;;;;;;;26.10;18.48;;;;;;;9.06;97.76;94945.47;1685485;84;21561;-59
2022/10/31 03:27:03;;;;;;;25.82;16.80;;;;;;;9.11;97.61;94943.56;1647071;86;21030;-59
2022/10/31 03:29:34;;;;;;;24.15;16.32;;;;;;;9.16;97.72;94951.27;1618957;85;21021;-59
2022/10/31 03:32:06;;;;;;;15.93;12.07;;;;;;;9.21;97.35;94947.39;1608245;88;21268;-59
2022/10/31 03:34:33;;;;;;;19.37;14.13;;;;;;;9.21;97.07;94949.39;1682572;84;21014;-59
2022/10/31 03:37:02;;;;;;;20.75;13.72;;;;;;;9.27;97.52;94951.76;1631295;86;21014;-59
2022/10/31 03:39:30;;;;;;;20.43;13.00;;;;;;;9.28;97.31;94953.30;1693644;83;21038;-59
2022/10/31 03:42:02;;;;;;;21.82;14.20;;;;;;;9.31;96.80;94953.21;1644218;85;21015;-58
2022/10/31 03:44:29;;;;;;;27.07;15.60;;;;;;;9.28;96.21;94958.79;1657139;85;21315;-58
2022/10/31 03:46:57;;;;;;;20.50;15.15;;;;;;;9.20;96.35;94951.94;1673456;85;20983;-58
2022/10/31 03:49:25;;;;;;;20.05;15.10;;;;;;;9.19;96.63;94953.14;1672943;84;21430;-58
2022/10/31 03:52:10;;;;;;;20.72;15.58;;;;;;;9.18;96.80;94952.97;1636507;85;21089;-59
2022/10/31 03:54:43;;;;;;;18.07;14.13;;;;;;;9.19;97.01;94951.77;1659047;85;21443;-59
2022/10/31 03:57:31;;;;;;;20.43;14.95;;;;;;;9.25;96.98;94948.68;1664329;84;21219;-58
2022/10/31 04:00:09;;;;;;;29.72;19.32;;;;;;;9.27;96.85;94951.76;1649499;86;21003;-59
2022/10/31 04:02:43;;;;;;;25.17;15.72;;;;;;;9.29;96.97;94952.84;1650702;84;21089;-59
2022/10/31 04:05:10;;;;;;;23.70;16.10;;;;;;;9.28;96.91;94954.67;1680925;85;21061;-59
2022/10/31 04:07:42;;;;;;;28.30;16.62;;;;;;;9.27;97.20;94947.64;1680072;84;20979;-60
2022/10/31 04:10:12;;;;;;;21.00;14.23;;;;;;;9.30;97.16;94951.67;1643161;86;21886;-59
2022/10/31 04:12:42;;;;;;;19.85;14.10;;;;;;;9.31;96.90;94955.17;1680340;84;21249;-59
2022/10/31 04:15:15;;;;;;;21.30;16.35;;;;;;;9.31;96.80;94950.47;1680605;84;21191;-61
2022/10/31 04:17:42;;;;;;;24.20;15.48;;;;;;;9.32;96.87;94952.00;1673413;85;21022;-61
2022/10/31 04:20:10;;;;;;;28.17;20.35;;;;;;;9.36;97.09;94954.63;1658717;85;21116;-59
2022/10/31 04:22:39;;;;;;;34.70;25.25;;;;;;;9.38;96.90;94947.52;1682409;84;22948;-60
2022/10/31 04:25:08;;;;;;;35.17;25.60;;;;;;;9.36;96.66;94938.95;1686291;84;21019;-59
2022/10/31 04:27:37;;;;;;;40.80;25.27;;;;;;;9.41;96.94;94951.38;1682806;84;21006;-59
2022/10/31 04:30:05;;;;;;;33.63;24.98;;;;;;;9.44;97.06;94944.40;1683361;84;20983;-58
2022/10/31 04:32:33;;;;;;;46.42;32.70;;;;;;;9.45;96.87;94947.31;1633887;85;20994;-59
2022/10/31 04:34:59;;;;;;;43.65;28.45;;;;;;;9.41;96.67;94947.27;1686376;84;21161;-58
2022/10/31 04:37:28;;;;;;;39.20;22.50;;;;;;;9.42;97.19;94947.42;1682351;84;21027;-58
2022/10/31 04:39:56;;;;;;;24.60;16.05;;;;;;;9.45;96.86;94943.81;1670775;84;21165;-58
2022/10/31 04:42:42;;;;;;;22.40;16.27;;;;;;;9.39;96.82;94946.31;1673653;84;21031;-57
2022/10/31 04:45:09;;;;;;;30.37;20.45;;;;;;;9.39;96.98;94946.90;1627913;85;21581;-59
2022/10/31 04:47:36;;;;;;;37.65;21.65;;;;;;;9.35;96.69;94944.86;1676191;84;21235;-58
2022/10/31 04:50:04;;;;;;;41.33;22.55;;;;;;;9.34;96.89;94951.55;1692576;84;20954;-58
2022/10/31 04:52:35;;;;;;;36.35;19.55;;;;;;;9.34;96.71;94942.73;1659061;86;21561;-60
2022/10/31 04:55:02;;;;;;;44.35;22.75;;;;;;;9.36;96.72;94948.55;1671793;84;21112;-60
2022/10/31 04:57:31;;;;;;;60.67;25.95;;;;;;;9.36;96.60;94943.66;1665816;84;21088;-60
2022/10/31 04:59:59;;;;;;;55.88;29.02;;;;;;;9.36;96.78;94944.44;1677309;84;21286;-60
2022/10/31 06:29:21;;;;;;;125.72;60.63;;;;;;;9.39;100.00;95007.30;1758441;77;21191;-56
2022/10/31 06:32:05;;;;;;;96.65;52.80;;;;;;;9.57;100.00;95007.59;1668710;82;21078;-55
2022/10/31 06:34:35;;;;;;;50.43;34.40;;;;;;;9.75;100.00;95007.88;1711934;80;20965;-56
2022/10/31 06:37:02;;;;;;;44.70;28.02;;;;;;;9.94;100.00;95011.84;1706379;80;21071;-54
2022/10/31 06:39:32;;;;;;;31.45;25.30;;;;;;;10.13;100.00;95011.55;1707827;81;21092;-57
2022/10/31 06:41:59;;;;;;;29.40;20.72;;;;;;;10.29;100.00;95016.34;1699559;81;21822;-56
2022/10/31 06:44:26;;;;;;;41.80;29.23;;;;;;;10.44;100.00;95008.42;1716516;80;21085;-56
2022/10/31 06:46:59;;;;;;;40.15;26.95;;;;;;;10.54;100.00;95011.47;1705228;82;21548;-57
2022/10/31 06:49:45;;;;;;;33.58;20.62;;;;;;;10.64;100.00;95012.51;1669081;82;21078;-59
2022/10/31 06:52:15;;;;;;;37.10;21.97;;;;;;;10.79;100.00;95018.49;1629338;84;21078;-57
2022/10/31 06:54:42;;;;;;;34.43;22.15;;;;;;;10.89;100.00;95017.39;1701879;81;23153;-59
2022/10/31 06:57:12;;;;;;;18.42;15.28;;;;;;;10.99;100.00;95006.63;1673693;82;21099;-56
2022/10/31 06:59:40;;;;;;;16.02;12.30;;;;;;;11.13;99.89;95013.67;1710223;81;21695;-61
2022/10/31 07:02:18;;;;;;;19.45;12.40;;;;;;;11.22;99.32;95009.62;1718719;81;21093;-56
2022/10/31 07:04:45;;;;;;;17.27;13.85;;;;;;;11.38;99.02;95006.72;1696416;81;21083;-55
2022/10/31 07:07:17;;;;;;;16.12;10.63;;;;;;;11.48;98.16;95017.96;1669553;82;22236;-57
2022/10/31 07:09:45;;;;;;;12.50;9.60;;;;;;;11.58;97.75;95016.87;1691892;80;20982;-56
2022/10/31 07:12:13;;;;;;;15.32;11.05;;;;;;;11.71;97.25;95017.59;1705920;81;21033;-56
2022/10/31 07:14:43;;;;;;;19.15;13.10;;;;;;;11.84;96.72;95012.77;1679446;82;21155;-58
2022/10/31 07:17:11;;;;;;;17.37;12.65;;;;;;;11.98;96.46;95014.43;1693955;81;21077;-57
2022/10/31 07:19:42;;;;;;;16.27;12.33;;;;;;;12.19;95.81;95012.27;1692652;81;20990;-57
2022/10/31 07:22:09;;;;;;;17.10;12.03;;;;;;;12.45;94.71;95008.11;1664885;84;21627;-58
2022/10/31 07:24:39;;;;;;;14.30;10.78;;;;;;;12.68;93.89;95002.09;1673585;81;21525;-58
2022/10/31 07:27:12;;;;;;;14.15;9.78;;;;;;;12.91;92.55;95009.22;1700291;80;21030;-61
2022/10/31 07:29:40;;;;;;;20.15;12.10;;;;;;;13.08;91.09;95008.39;1723249;80;21187;-61
2022/10/31 07:32:08;;;;;;;14.30;11.97;;;;;;;13.18;89.80;95004.41;1670921;81;21767;-58
2022/10/31 07:34:38;;;;;;;25.35;18.35;;;;;;;13.27;89.35;95005.20;1690844;81;21362;-58
2022/10/31 07:37:07;;;;;;;21.62;14.50;;;;;;;13.43;88.57;95000.78;1690840;80;21096;-60
2022/10/31 07:39:34;;;;;;;16.17;12.07;;;;;;;13.58;87.69;95005.08;1707005;80;21526;-58
2022/10/31 07:42:02;;;;;;;18.12;9.85;;;;;;;13.71;86.76;95000.96;1692233;83;21296;-58
2022/10/31 07:44:32;;;;;;;13.25;10.05;;;;;;;13.81;86.20;95002.48;1668078;83;21169;-57
2022/10/31 07:47:13;;;;;;;18.02;11.30;;;;;;;13.89;85.85;95002.94;1640099;80;21136;-56
2022/10/31 07:49:44;;;;;;;17.27;10.98;;;;;;;14.00;85.19;94997.09;1646097;81;21613;-59
2022/10/31 07:52:22;;;;;;;18.12;12.50;;;;;;;14.15;84.33;94993.09;1539525;89;21092;-58
2022/10/31 07:54:57;;;;;;;14.38;11.05;;;;;;;14.32;83.67;94988.79;1691736;80;21065;-58
2022/10/31 07:57:24;;;;;;;15.45;8.83;;;;;;;14.47;82.97;94983.51;1730406;81;21093;-57
2022/10/31 07:59:51;;;;;;;13.60;9.83;;;;;;;14.63;81.95;94985.92;1711529;81;21180;-60
2022/10/31 08:02:18;;;;;;;14.03;9.93;;;;;;;14.76;80.95;94985.86;1728698;80;21140;-56
2022/10/31 08:04:48;;;;;;;24.98;11.78;;;;;;;14.93;79.94;94980.09;1732171;80;21038;-57
2022/10/31 08:07:37;;;;;;;19.20;13.35;;;;;;;15.05;79.07;94986.05;1726956;80;21838;-58
2022/10/31 08:10:08;;;;;;;17.65;12.03;;;;;;;15.12;78.54;94977.38;1718445;80;21284;-59
2022/10/31 08:12:38;;;;;;;18.37;10.88;;;;;;;15.20;78.48;94979.93;1726509;80;21496;-61
2022/10/31 08:15:08;;;;;;;13.68;10.13;;;;;;;15.35;77.86;94982.19;1717511;80;20988;-59
2022/10/31 08:17:37;;;;;;;16.70;10.25;;;;;;;15.50;77.25;94980.23;1738824;78;22044;-57
2022/10/31 08:20:05;;;;;;;12.82;10.13;;;;;;;15.60;76.88;94978.95;1707848;81;21013;-59
2022/10/31 08:22:34;;;;;;;11.68;8.40;;;;;;;15.68;76.79;94980.71;1711526;80;21939;-57
2022/10/31 08:25:03;;;;;;;10.95;7.87;;;;;;;15.79;76.42;94982.33;1721537;80;21481;-60
2022/10/31 08:27:32;;;;;;;14.25;8.15;;;;;;;15.90;76.33;94984.70;1727195;81;21025;-58
2022/10/31 08:30:00;;;;;;;11.97;7.12;;;;;;;16.08;75.47;94987.95;1717688;80;21147;-57
2022/10/31 08:32:28;;;;;;;14.28;7.47;;;;;;;16.24;74.57;94977.14;1737045;79;21045;-58
2022/10/31 08:34:58;;;;;;;16.57;8.15;;;;;;;16.39;74.01;94979.34;1742328;80;22396;-58
2022/10/31 08:37:34;;;;;;;9.13;6.95;;;;;;;16.52;73.83;94976.41;1705324;80;21071;-61
2022/10/31 08:40:04;;;;;;;14.53;7.83;;;;;;;16.71;72.56;94972.81;1722523;80;21923;-58
2022/10/31 08:42:33;;;;;;;9.45;6.55;;;;;;;16.81;72.25;94967.27;1721532;81;21071;-58
2022/10/31 08:45:01;;;;;;;12.80;7.05;;;;;;;16.89;72.38;94968.42;1718150;80;21152;-57
2022/10/31 08:47:29;;;;;;;9.80;7.85;;;;;;;17.03;72.42;94960.66;1712044;80;22238;-59
2022/10/31 08:49:56;;;;;;;13.08;7.72;;;;;;;17.31;72.07;94970.17;1728036;78;21080;-59
2022/10/31 08:52:25;;;;;;;12.95;7.42;;;;;;;17.60;70.48;94961.72;1695212;79;21125;-57
2022/10/31 08:54:54;;;;;;;8.58;6.65;;;;;;;17.92;69.67;94962.77;1702640;81;21027;-59
2022/10/31 08:57:40;;;;;;;7.70;6.28;;;;;;;18.21;68.41;94962.55;1704640;81;21461;-57
2022/10/31 09:00:08;;;;;;;11.38;6.95;;;;;;;18.52;67.10;94962.03;1732700;80;21180;-58
2022/10/31 09:02:45;;;;;;;7.47;5.70;;;;;;;18.64;66.98;94962.89;1740146;80;21040;-57
2022/10/31 09:05:13;;;;;;;11.93;5.67;;;;;;;18.60;66.58;94960.31;1734533;80;21028;-58
2022/10/31 09:07:41;;;;;;;7.33;5.55;;;;;;;18.57;66.01;94965.48;1726423;80;21514;-58
2022/10/31 09:10:09;;;;;;;11.18;5.80;;;;;;;18.59;66.19;94970.55;1713292;78;21051;-60
2022/10/31 09:12:37;;;;;;;8.03;5.50;;;;;;;18.65;65.16;94962.37;1701067;80;21541;-58
2022/10/31 09:15:22;;;;;;;9.08;5.20;;;;;;;18.65;64.75;94971.38;1714674;81;21561;-58
2022/10/31 09:17:56;;;;;;;11.28;5.92;;;;;;;18.57;65.57;94973.06;1680679;81;21128;-63
2022/10/31 09:20:32;;;;;;;14.70;7.40;;;;;;;18.57;65.84;94971.06;1684085;82;21463;-58
2022/10/31 09:23:10;;;;;;;10.03;6.90;;;;;;;18.65;65.18;94967.95;1718187;80;21076;-60
2022/10/31 09:25:41;;;;;;;17.67;9.98;;;;;;;18.79;65.60;94965.67;1710598;81;21030;-57
2022/10/31 09:28:15;;;;;;;17.55;9.33;;;;;;;18.95;65.19;94967.83;1701692;81;21101;-59
2022/10/31 09:30:48;;;;;;;12.43;7.35;;;;;;;19.15;65.13;94967.71;1683647;82;21040;-60
2022/10/31 09:33:17;;;;;;;18.20;15.53;;;;;;;19.47;63.72;94967.82;1730193;78;21030;-58
2022/10/31 09:35:46;;;;;;;7.40;5.30;;;;;;;19.82;63.04;94965.45;1709282;80;21054;-60
2022/10/31 09:38:23;;;;;;;8.95;4.10;;;;;;;20.10;62.31;94963.54;1722885;80;21176;-59
2022/10/31 09:41:07;;;;;;;6.72;3.92;;;;;;;20.30;61.99;94964.73;1711792;81;21168;-62
2022/10/31 09:43:52;;;;;;;14.25;4.10;;;;;;;20.63;60.82;94966.19;1715807;80;21620;-60
2022/10/31 09:47:04;;;;;;;5.72;4.20;;;;;;;21.03;59.74;94963.70;1728714;80;20997;-60
2022/10/31 09:50:05;;;;;;;4.58;3.90;;;;;;;21.48;58.57;94961.61;1700887;81;21029;-58
2022/10/31 09:52:36;;;;;;;4.67;3.62;;;;;;;22.10;56.58;94959.62;1720814;81;21144;-60
2022/10/31 09:55:18;;;;;;;12.35;3.90;;;;;;;22.74;54.96;94966.04;1653952;83;21228;-59
2022/10/31 09:57:45;;;;;;;5.45;3.37;;;;;;;23.13;53.65;94957.33;1726580;81;21065;-56
2022/10/31 10:00:19;;;;;;;8.10;3.40;;;;;;;23.40;52.53;94964.09;1703956;81;21072;-57
2022/10/31 10:02:56;;;;;;;9.63;3.50;;;;;;;23.58;52.61;94954.23;1712027;81;21208;-58
2022/10/31 10:05:31;;;;;;;4.45;3.17;;;;;;;23.68;51.13;94958.97;1714756;80;21162;-60
2022/10/31 10:08:23;;;;;;;8.90;3.42;;;;;;;23.79;50.86;94957.42;1697728;81;21631;-57
2022/10/31 10:11:51;;;;;;;7.92;3.77;;;;;;;23.94;50.40;94957.79;1656773;82;21078;-58
2022/10/31 10:14:45;;;;;;;6.83;3.15;;;;;;;24.06;50.35;94956.37;1713638;81;21098;-61
2022/10/31 10:17:36;;;;;;;6.47;3.50;;;;;;;24.51;49.42;94943.23;1719629;80;21531;-59
2022/10/31 10:20:17;;;;;;;8.73;3.67;;;;;;;24.98;48.60;94944.34;1710488;81;21463;-56
2022/10/31 10:22:58;;;;;;;4.53;3.20;;;;;;;25.26;46.53;94939.03;1689571;81;21052;-55
2022/10/31 10:25:40;;;;;;;6.08;2.58;;;;;;;25.45;46.16;94941.16;1700854;81;21096;-56
2022/10/31 10:28:37;;;;;;;14.00;3.35;;;;;;;25.70;46.32;94938.98;1696332;80;21489;-60
2022/10/31 10:31:17;;;;;;;7.50;3.45;;;;;;;26.02;45.86;94944.68;1699417;81;21189;-60
2022/10/31 10:34:04;;;;;;;5.28;3.58;;;;;;;26.25;45.42;94940.09;1696135;82;21159;-60
2022/10/31 10:36:52;;;;;;;8.35;4.58;;;;;;;26.43;44.98;94940.60;1736911;81;21500;-58
2022/10/31 10:39:39;;;;;;;7.03;3.10;;;;;;;26.87;43.85;94941.03;1698599;82;21066;-59
2022/10/31 10:47:44;;;;;;;16.85;3.72;;;;;;;28.04;41.21;94936.13;1642506;84;21268;-58
2022/10/31 10:50:23;;;;;;;7.25;2.80;;;;;;;28.90;38.80;94942.59;1706760;80;21185;-57
2022/10/31 10:53:21;;;;;;;9.13;3.42;;;;;;;29.54;38.84;94931.00;1729703;80;21168;-59
2022/10/31 10:55:58;;;;;;;8.03;2.95;;;;;;;29.84;37.49;94939.50;1718877;80;21098;-58
2022/10/31 10:58:25;;;;;;;4.95;2.37;;;;;;;30.12;37.44;94929.44;1680774;83;21274;-58
2022/10/31 11:00:53;;;;;;;6.62;2.40;;;;;;;30.58;35.63;94941.44;1716422;81;21197;-58
2022/10/31 11:03:20;;;;;;;6.30;3.02;;;;;;;30.79;35.57;94929.89;1663082;82;21079;-58
2022/10/31 11:06:00;;;;;;;4.60;2.20;;;;;;;30.93;35.50;94928.31;1712555;81;21540;-59
2022/10/31 11:08:34;;;;;;;8.70;1.77;;;;;;;31.03;34.35;94919.23;1729413;81;21027;-58
2022/10/31 11:11:27;;;;;;;16.57;2.83;;;;;;;31.05;32.67;94925.09;1726963;78;21229;-58
2022/10/31 11:14:03;;;;;;;12.50;2.00;;;;;;;31.11;32.67;94929.94;1744123;79;21056;-58
2022/10/31 11:16:37;;;;;;;23.98;2.85;;;;;;;31.13;32.00;94925.85;1742836;81;21519;-57
2022/10/31 11:19:16;;;;;;;16.27;2.55;;;;;;;31.12;31.70;94922.16;1709947;82;21252;-57
2022/10/31 11:21:45;;;;;;;24.18;3.87;;;;;;;31.03;31.76;94919.23;1698367;82;21582;-55
2022/10/31 11:24:16;;;;;;;12.20;2.47;;;;;;;31.01;31.69;94916.22;1655625;84;21136;-56
2022/10/31 11:26:45;;;;;;;14.38;3.92;;;;;;;30.95;30.99;94917.77;1684092;83;22935;-56
2022/10/31 11:29:18;;;;;;;5.15;1.70;;;;;;;30.64;31.02;94920.02;1666990;83;21616;-56
2022/10/31 11:31:46;;;;;;;12.65;2.17;;;;;;;30.30;31.31;94918.31;1711057;80;21032;-57
2022/10/31 11:34:30;;;;;;;9.73;2.58;;;;;;;30.19;31.66;94908.03;1703752;81;21034;-57
2022/10/31 11:37:22;;;;;;;32.25;18.87;;;;;;;30.21;31.38;94919.58;1709376;81;20997;-56
2022/10/31 11:39:56;;;;;;;16.12;7.25;;;;;;;30.19;31.27;94919.39;1717912;81;21533;-56
2022/10/31 11:42:26;;;;;;;34.15;23.05;;;;;;;30.12;31.60;94915.24;1723152;81;21183;-60
2022/10/31 11:44:57;;;;;;;13.75;4.20;;;;;;;30.12;31.33;94915.24;1724710;80;21068;-59
2022/10/31 11:47:32;;;;;;;15.45;6.47;;;;;;;30.10;31.15;94912.91;1656307;83;21113;-56
2022/10/31 11:50:07;;;;;;;33.35;11.57;;;;;;;30.03;31.57;94920.10;1698549;82;21073;-57
2022/10/31 11:52:37;;;;;;;10.08;1.70;;;;;;;30.04;31.68;94909.48;1730163;81;21223;-58
2022/10/31 11:55:19;;;;;;;15.13;9.30;;;;;;;30.04;31.25;94914.52;1693300;81;21005;-57
2022/10/31 11:57:50;;;;;;;12.58;3.60;;;;;;;29.92;31.87;94909.11;1710118;81;21088;-56
2022/10/31 12:00:32;;;;;;;18.42;4.60;;;;;;;30.00;31.77;94911.94;1706323;81;21121;-56
2022/10/31 12:03:17;;;;;;;19.30;6.62;;;;;;;30.12;31.59;94903.14;1662335;80;21909;-58
2022/10/31 12:05:44;;;;;;;14.98;8.05;;;;;;;30.29;31.38;94908.28;1629451;85;21274;-58
2022/10/31 12:08:12;;;;;;;19.75;8.15;;;;;;;30.71;31.21;94912.11;1625816;85;21272;-57
2022/10/31 12:10:51;;;;;;;18.65;4.80;;;;;;;30.87;31.36;94910.70;1637374;83;21176;-60
2022/10/31 12:13:41;;;;;;;15.00;4.85;;;;;;;30.84;30.65;94918.97;1595064;83;21057;-56
2022/10/31 12:16:39;;;;;;;22.75;10.82;;;;;;;30.67;30.99;94910.34;1617393;86;21007;-58
2022/10/31 12:19:37;;;;;;;13.18;8.58;;;;;;;30.91;31.02;94916.77;1606927;87;21846;-59
2022/10/31 12:22:22;;;;;;;10.38;4.67;;;;;;;31.41;30.32;94914.76;1609722;85;21160;-60
2022/10/31 12:25:09;;;;;;;18.32;4.00;;;;;;;31.83;29.85;94920.59;1633766;85;21544;-54
2022/10/31 12:28:09;;;;;;;15.10;3.35;;;;;;;32.07;29.47;94919.79;1619629;86;21130;-55
2022/10/31 12:30:51;;;;;;;12.18;3.95;;;;;;;32.17;29.37;94922.84;1637056;84;21037;-56
2022/10/31 12:33:38;;;;;;;16.67;2.98;;;;;;;32.22;28.91;94918.25;1628620;84;21198;-55
2022/10/31 12:36:52;;;;;;;13.45;3.90;;;;;;;32.01;29.10;94912.17;1632049;85;21674;-58
2022/10/31 12:39:30;;;;;;;10.30;3.35;;;;;;;31.94;29.15;94914.41;1623313;85;21025;-56
2022/10/31 12:42:40;;;;;;;17.92;5.80;;;;;;;31.93;28.91;94906.55;1607617;85;21067;-59
2022/10/31 12:45:28;;;;;;;27.62;16.95;;;;;;;31.65;29.02;94909.09;1604423;85;21205;-57
2022/10/31 12:48:36;;;;;;;31.20;5.37;;;;;;;31.32;29.68;94901.92;1608648;86;21595;-60
2022/10/31 12:51:34;;;;;;;20.00;3.15;;;;;;;31.47;29.68;94906.73;1588386;87;21078;-56
2022/10/31 12:54:36;;;;;;;14.30;3.35;;;;;;;31.56;29.29;94905.42;1590915;86;21085;-57
2022/10/31 12:57:17;;;;;;;15.60;6.23;;;;;;;31.27;29.56;94903.58;1598361;86;21093;-57
2022/10/31 12:59:50;;;;;;;;;;;;;;;31.06;29.92;94903.86;1592596;87;21073;-58
2022/10/31 13:02:52;;;;;;;18.32;10.95;;;;;;;31.01;30.11;94909.11;1611812;85;21294;-61
2022/10/31 13:05:30;;;;;;;17.67;6.03;;;;;;;30.96;30.22;94914.36;1627357;85;21066;-61
2022/10/31 13:08:13;;;;;;;8.75;3.00;;;;;;;31.04;30.44;94905.11;1618566;85;21069;-61
2022/10/31 13:10:52;;;;;;;19.65;5.90;;;;;;;31.06;29.77;94907.39;1609331;85;21065;-60
2022/10/31 13:13:35;;;;;;;19.23;9.30;;;;;;;30.93;29.99;94904.80;1621808;84;21033;-58
2022/10/31 13:16:30;;;;;;;29.77;10.78;;;;;;;30.78;30.11;94909.91;1614666;85;21635;-60
2022/10/31 13:19:20;;;;;;;25.37;8.50;;;;;;;30.60;30.53;94905.45;1630048;84;21131;-57
2022/10/31 13:22:08;;;;;;;13.53;4.50;;;;;;;30.61;30.54;94913.30;1615965;86;21100;-59
2022/10/31 13:25:01;;;;;;;11.30;3.65;;;;;;;30.51;30.48;94903.18;1614925;85;21176;-58
2022/10/31 13:28:01;;;;;;;15.72;3.50;;;;;;;30.45;30.52;94905.48;1611098;86;21195;-59
2022/10/31 13:30:40;;;;;;;14.00;4.60;;;;;;;30.18;30.69;94907.30;1624298;85;21213;-56
2022/10/31 13:33:32;;;;;;;31.40;7.30;;;;;;;29.86;31.41;94904.95;1625214;84;21030;-59